sensor_id;sensor_type;location;lat;lon;timestamp;pressure;altitude;pressure_sealevel;temperature;humidity
40384;BME280;26097;42.366;23.818;2024-02-04T00:02:23;94386.47;;;5.60;98.50
40384;BME280;26097;42.366;23.818;2024-02-04T00:05:24;94405.50;;;5.58;98.92
40384;BME280;26097;42.366;23.818;2024-02-04T00:08:23;94405.50;;;5.58;98.80
40384;BME280;26097;42.366;23.818;2024-02-04T00:11:22;94413.88;;;5.46;99.85
40384;BME280;26097;42.366;23.818;2024-02-04T00:14:22;94407.88;;;5.46;100.00
40384;BME280;26097;42.366;23.818;2024-02-04T00:17:21;94408.09;;;5.41;100.00
40384;BME280;26097;42.366;23.818;2024-02-04T00:20:20;94411.16;;;5.14;100.00
40384;BME280;26097;42.366;23.818;2024-02-04T00:23:20;94412.19;;;5.27;100.00
40384;BME280;26097;42.366;23.818;2024-02-04T00:26:19;94412.97;;;5.29;100.00
40384;BME280;26097;42.366;23.818;2024-02-04T00:29:19;94420.22;;;5.40;100.00
40384;BME280;26097;42.366;23.818;2024-02-04T00:32:18;94421.78;;;5.43;100.00
40384;BME280;26097;42.366;23.818;2024-02-04T00:35:17;94413.28;;;5.41;100.00
40384;BME280;26097;42.366;23.818;2024-02-04T00:38:17;94420.59;;;5.33;100.00
40384;BME280;26097;42.366;23.818;2024-02-04T00:41:16;94425.75;;;5.50;100.00
40384;BME280;26097;42.366;23.818;2024-02-04T00:44:16;94423.59;;;5.58;100.00
40384;BME280;26097;42.366;23.818;2024-02-04T00:47:15;94422.19;;;5.69;100.00
40384;BME280;26097;42.366;23.818;2024-02-04T00:50:14;94415.22;;;5.71;100.00
40384;BME280;26097;42.366;23.818;2024-02-04T00:53:14;94407.00;;;5.63;100.00
40384;BME280;26097;42.366;23.818;2024-02-04T00:56:14;94414.78;;;5.45;100.00
40384;BME280;26097;42.366;23.818;2024-02-04T00:59:13;94422.38;;;5.48;100.00
40384;BME280;26097;42.366;23.818;2024-02-04T01:02:13;94420.41;;;5.53;100.00
40384;BME280;26097;42.366;23.818;2024-02-04T01:05:12;94426.63;;;5.49;100.00
40384;BME280;26097;42.366;23.818;2024-02-04T01:08:13;94431.50;;;5.55;100.00
40384;BME280;26097;42.366;23.818;2024-02-04T01:11:13;94419.19;;;5.61;100.00
40384;BME280;26097;42.366;23.818;2024-02-04T01:14:12;94413.06;;;5.79;100.00
40384;BME280;26097;42.366;23.818;2024-02-04T01:17:12;94407.88;;;5.79;100.00
40384;BME280;26097;42.366;23.818;2024-02-04T01:20:11;94408.88;;;5.77;99.87
40384;BME280;26097;42.366;23.818;2024-02-04T01:23:11;94409.88;;;5.74;100.00
40384;BME280;26097;42.366;23.818;2024-02-04T01:26:12;94419.22;;;5.77;99.87
40384;BME280;26097;42.366;23.818;2024-02-04T01:29:11;94398.28;;;5.81;99.38
40384;BME280;26097;42.366;23.818;2024-02-04T01:32:10;94397.22;;;5.85;99.17
40384;BME280;26097;42.366;23.818;2024-02-04T01:35:10;94412.44;;;5.92;98.85
40384;BME280;26097;42.366;23.818;2024-02-04T01:38:09;94405.81;;;6.04;98.13
40384;BME280;26097;42.366;23.818;2024-02-04T01:41:08;94428.69;;;6.11;97.52
40384;BME280;26097;42.366;23.818;2024-02-04T01:44:08;94404.66;;;6.09;98.05
40384;BME280;26097;42.366;23.818;2024-02-04T01:47:08;94398.22;;;6.17;97.47
40384;BME280;26097;42.366;23.818;2024-02-04T01:50:07;94392.81;;;6.21;97.02
40384;BME280;26097;42.366;23.818;2024-02-04T01:53:07;94402.13;;;6.24;96.70
40384;BME280;26097;42.366;23.818;2024-02-04T01:56:07;94408.16;;;6.24;96.68
40384;BME280;26097;42.366;23.818;2024-02-04T01:59:07;94413.91;;;6.29;96.50
40384;BME280;26097;42.366;23.818;2024-02-04T02:02:07;94403.81;;;6.25;97.03
40384;BME280;26097;42.366;23.818;2024-02-04T02:05:07;94391.25;;;6.17;97.66
40384;BME280;26097;42.366;23.818;2024-02-04T02:08:08;94394.19;;;6.27;97.15
40384;BME280;26097;42.366;23.818;2024-02-04T02:11:18;94388.59;;;6.19;98.47
40384;BME280;26097;42.366;23.818;2024-02-04T02:14:24;94382.91;;;6.28;98.13
40384;BME280;26097;42.366;23.818;2024-02-04T02:17:38;94388.88;;;6.30;97.99
40384;BME280;26097;42.366;23.818;2024-02-04T02:24:14;94365.63;;;6.45;97.42
40384;BME280;26097;42.366;23.818;2024-02-04T02:27:15;94354.88;;;6.36;98.24
40384;BME280;26097;42.366;23.818;2024-02-04T02:30:14;94363.38;;;6.38;98.21
40384;BME280;26097;42.366;23.818;2024-02-04T02:33:15;94360.88;;;6.37;99.19
40384;BME280;26097;42.366;23.818;2024-02-04T02:36:20;94362.06;;;6.31;99.81
40384;BME280;26097;42.366;23.818;2024-02-04T02:39:26;94346.19;;;6.37;99.64
40384;BME280;26097;42.366;23.818;2024-02-04T02:42:27;94348.09;;;6.34;100.00
40384;BME280;26097;42.366;23.818;2024-02-04T02:45:28;94349.44;;;6.41;100.00
40384;BME280;26097;42.366;23.818;2024-02-04T02:48:27;94331.97;;;6.45;100.00
40384;BME280;26097;42.366;23.818;2024-02-04T02:51:28;94345.91;;;6.58;100.00
40384;BME280;26097;42.366;23.818;2024-02-04T02:54:27;94343.31;;;6.58;100.00
40384;BME280;26097;42.366;23.818;2024-02-04T02:57:26;94347.06;;;6.68;100.00
40384;BME280;26097;42.366;23.818;2024-02-04T03:00:26;94331.19;;;6.75;100.00
40384;BME280;26097;42.366;23.818;2024-02-04T03:03:25;94339.63;;;6.78;100.00
40384;BME280;26097;42.366;23.818;2024-02-04T03:06:24;94344.69;;;6.80;100.00
40384;BME280;26097;42.366;23.818;2024-02-04T03:09:24;94349.31;;;6.75;100.00
40384;BME280;26097;42.366;23.818;2024-02-04T03:12:23;94344.13;;;6.75;100.00
40384;BME280;26097;42.366;23.818;2024-02-04T03:15:22;94362.00;;;6.79;100.00
40384;BME280;26097;42.366;23.818;2024-02-04T03:18:22;94348.78;;;6.84;100.00
40384;BME280;26097;42.366;23.818;2024-02-04T03:21:21;94336.75;;;6.83;100.00
40384;BME280;26097;42.366;23.818;2024-02-04T03:24:21;94335.63;;;6.87;100.00
40384;BME280;26097;42.366;23.818;2024-02-04T03:27:20;94344.75;;;6.94;100.00
40384;BME280;26097;42.366;23.818;2024-02-04T03:30:20;94341.22;;;6.95;100.00
40384;BME280;26097;42.366;23.818;2024-02-04T03:33:20;94334.00;;;7.00;100.00
40384;BME280;26097;42.366;23.818;2024-02-04T03:36:22;94340.13;;;6.99;100.00
40384;BME280;26097;42.366;23.818;2024-02-04T03:39:22;94330.50;;;7.02;100.00
40384;BME280;26097;42.366;23.818;2024-02-04T03:42:22;94321.97;;;6.99;100.00
40384;BME280;26097;42.366;23.818;2024-02-04T03:45:21;94327.34;;;6.96;100.00
40384;BME280;26097;42.366;23.818;2024-02-04T03:48:20;94318.66;;;6.97;100.00
40384;BME280;26097;42.366;23.818;2024-02-04T03:51:20;94319.09;;;6.90;100.00
40384;BME280;26097;42.366;23.818;2024-02-04T03:54:19;94320.09;;;6.87;100.00
40384;BME280;26097;42.366;23.818;2024-02-04T03:57:19;94314.09;;;6.86;100.00
40384;BME280;26097;42.366;23.818;2024-02-04T04:00:18;94301.78;;;6.90;100.00
40384;BME280;26097;42.366;23.818;2024-02-04T04:03:18;94290.88;;;6.99;100.00
40384;BME280;26097;42.366;23.818;2024-02-04T04:06:17;94298.38;;;7.04;100.00
40384;BME280;26097;42.366;23.818;2024-02-04T04:09:17;94298.28;;;7.06;100.00
40384;BME280;26097;42.366;23.818;2024-02-04T04:12:16;94289.22;;;6.98;100.00
40384;BME280;26097;42.366;23.818;2024-02-04T04:15:15;94288.28;;;6.99;100.00
40384;BME280;26097;42.366;23.818;2024-02-04T04:18:15;94290.41;;;6.93;100.00
40384;BME280;26097;42.366;23.818;2024-02-04T04:21:14;94281.69;;;6.94;100.00
40384;BME280;26097;42.366;23.818;2024-02-04T04:24:14;94281.88;;;6.91;100.00
40384;BME280;26097;42.366;23.818;2024-02-04T04:27:15;94266.41;;;6.75;100.00
40384;BME280;26097;42.366;23.818;2024-02-04T04:30:15;94257.91;;;6.72;100.00
40384;BME280;26097;42.366;23.818;2024-02-04T04:33:14;94272.63;;;6.86;100.00
40384;BME280;26097;42.366;23.818;2024-02-04T04:36:13;94279.09;;;6.94;100.00
40384;BME280;26097;42.366;23.818;2024-02-04T04:39:13;94270.50;;;6.93;100.00
40384;BME280;26097;42.366;23.818;2024-02-04T04:42:13;94263.84;;;7.04;100.00
40384;BME280;26097;42.366;23.818;2024-02-04T04:45:12;94274.63;;;7.12;100.00
40384;BME280;26097;42.366;23.818;2024-02-04T04:48:13;94274.25;;;7.18;100.00
40384;BME280;26097;42.366;23.818;2024-02-04T04:51:12;94289.41;;;7.24;100.00
40384;BME280;26097;42.366;23.818;2024-02-04T04:54:12;94289.06;;;7.31;100.00
40384;BME280;26097;42.366;23.818;2024-02-04T04:57:11;94283.59;;;7.35;100.00
40384;BME280;26097;42.366;23.818;2024-02-04T05:00:11;94288.50;;;7.40;100.00
40384;BME280;26097;42.366;23.818;2024-02-04T05:03:12;94299.25;;;7.34;100.00
40384;BME280;26097;42.366;23.818;2024-02-04T05:06:11;94286.56;;;7.29;100.00
40384;BME280;26097;42.366;23.818;2024-02-04T05:09:10;94309.44;;;7.37;100.00
40384;BME280;26097;42.366;23.818;2024-02-04T05:12:10;94308.50;;;7.38;100.00
40384;BME280;26097;42.366;23.818;2024-02-04T05:15:09;94332.50;;;7.41;100.00
40384;BME280;26097;42.366;23.818;2024-02-04T05:18:09;94328.34;;;7.53;100.00
40384;BME280;26097;42.366;23.818;2024-02-04T05:21:08;94317.97;;;7.53;100.00
40384;BME280;26097;42.366;23.818;2024-02-04T05:24:07;94321.50;;;7.52;100.00
40384;BME280;26097;42.366;23.818;2024-02-04T05:27:07;94324.28;;;7.49;100.00
40384;BME280;26097;42.366;23.818;2024-02-04T05:30:07;94309.53;;;7.50;100.00
40384;BME280;26097;42.366;23.818;2024-02-04T05:33:06;94309.25;;;7.40;100.00
40384;BME280;26097;42.366;23.818;2024-02-04T05:36:06;94319.81;;;7.37;100.00
40384;BME280;26097;42.366;23.818;2024-02-04T05:39:09;94296.84;;;7.31;100.00
40384;BME280;26097;42.366;23.818;2024-02-04T05:42:09;94312.00;;;7.22;100.00
40384;BME280;26097;42.366;23.818;2024-02-04T05:45:09;94308.88;;;7.17;100.00
40384;BME280;26097;42.366;23.818;2024-02-04T05:48:09;94329.44;;;7.20;100.00
40384;BME280;26097;42.366;23.818;2024-02-04T05:51:08;94309.81;;;7.31;100.00
40384;BME280;26097;42.366;23.818;2024-02-04T05:54:09;94318.16;;;7.36;100.00
40384;BME280;26097;42.366;23.818;2024-02-04T05:57:08;94326.84;;;7.35;100.00
40384;BME280;26097;42.366;23.818;2024-02-04T06:00:09;94307.50;;;7.40;100.00
40384;BME280;26097;42.366;23.818;2024-02-04T06:03:09;94323.25;;;7.52;100.00
40384;BME280;26097;42.366;23.818;2024-02-04T06:06:13;94317.03;;;7.54;100.00
40384;BME280;26097;42.366;23.818;2024-02-04T06:09:13;94339.94;;;7.77;100.00
40384;BME280;26097;42.366;23.818;2024-02-04T06:12:12;94332.59;;;7.83;100.00
40384;BME280;26097;42.366;23.818;2024-02-04T06:15:12;94317.03;;;7.83;100.00
40384;BME280;26097;42.366;23.818;2024-02-04T06:18:13;94314.53;;;7.82;100.00
40384;BME280;26097;42.366;23.818;2024-02-04T06:21:12;94307.75;;;7.79;100.00
40384;BME280;26097;42.366;23.818;2024-02-04T06:24:11;94315.16;;;7.85;99.68
40384;BME280;26097;42.366;23.818;2024-02-04T06:27:11;94323.88;;;7.84;99.67
40384;BME280;26097;42.366;23.818;2024-02-04T06:30:11;94334.09;;;7.88;99.05
40384;BME280;26097;42.366;23.818;2024-02-04T06:33:10;94340.09;;;7.88;98.89
40384;BME280;26097;42.366;23.818;2024-02-04T06:36:10;94335.38;;;7.95;98.13
40384;BME280;26097;42.366;23.818;2024-02-04T06:39:10;94352.88;;;8.06;96.69
40384;BME280;26097;42.366;23.818;2024-02-04T06:42:09;94347.56;;;8.22;95.41
40384;BME280;26097;42.366;23.818;2024-02-04T06:45:09;94350.53;;;8.30;94.94
40384;BME280;26097;42.366;23.818;2024-02-04T06:48:09;94346.72;;;8.36;94.48
40384;BME280;26097;42.366;23.818;2024-02-04T06:51:08;94346.72;;;8.36;93.93
40384;BME280;26097;42.366;23.818;2024-02-04T06:54:09;94352.72;;;8.36;93.14
40384;BME280;26097;42.366;23.818;2024-02-04T06:57:09;94365.22;;;8.44;92.74
40384;BME280;26097;42.366;23.818;2024-02-04T07:00:09;94382.56;;;8.43;92.48
40384;BME280;26097;42.366;23.818;2024-02-04T07:03:08;94381.09;;;8.54;91.62
40384;BME280;26097;42.366;23.818;2024-02-04T07:06:07;94368.75;;;8.57;91.11
40384;BME280;26097;42.366;23.818;2024-02-04T07:09:07;94393.34;;;8.66;90.27
40384;BME280;26097;42.366;23.818;2024-02-04T07:12:07;94377.78;;;8.79;89.04
40384;BME280;26097;42.366;23.818;2024-02-04T07:15:06;94384.69;;;8.93;88.45
40384;BME280;26097;42.366;23.818;2024-02-04T07:18:07;94385.94;;;9.00;87.97
40384;BME280;26097;42.366;23.818;2024-02-04T07:21:07;94375.75;;;8.97;86.63
40384;BME280;26097;42.366;23.818;2024-02-04T07:24:06;94357.91;;;9.06;86.26
40384;BME280;26097;42.366;23.818;2024-02-04T07:27:05;94351.44;;;9.11;84.90
40384;BME280;26097;42.366;23.818;2024-02-04T07:30:05;94340.88;;;9.27;84.14
40384;BME280;26097;42.366;23.818;2024-02-04T07:33:05;94345.13;;;9.41;83.70
40384;BME280;26097;42.366;23.818;2024-02-04T07:36:05;94334.50;;;9.57;82.43
40384;BME280;26097;42.366;23.818;2024-02-04T07:39:04;94330.75;;;9.62;81.35
40384;BME280;26097;42.366;23.818;2024-02-04T07:42:04;94337.53;;;9.64;80.06
40384;BME280;26097;42.366;23.818;2024-02-04T07:45:03;94345.25;;;9.66;80.24
40384;BME280;26097;42.366;23.818;2024-02-04T07:48:07;94343.97;;;9.58;79.83
40384;BME280;26097;42.366;23.818;2024-02-04T07:51:08;94334.00;;;9.65;80.25
40384;BME280;26097;42.366;23.818;2024-02-04T07:54:07;94335.63;;;9.79;79.43
40384;BME280;26097;42.366;23.818;2024-02-04T07:57:07;94335.03;;;9.89;78.52
40384;BME280;26097;42.366;23.818;2024-02-04T08:00:06;94336.03;;;9.99;77.50
40384;BME280;26097;42.366;23.818;2024-02-04T08:03:08;94350.59;;;10.14;75.58
40384;BME280;26097;42.366;23.818;2024-02-04T08:06:08;94345.78;;;10.21;75.46
40384;BME280;26097;42.366;23.818;2024-02-04T08:09:07;94364.56;;;10.13;75.03
40384;BME280;26097;42.366;23.818;2024-02-04T08:12:07;94337.78;;;10.11;75.70
40384;BME280;26097;42.366;23.818;2024-02-04T08:15:09;94335.06;;;10.26;73.79
40384;BME280;26097;42.366;23.818;2024-02-04T08:18:08;94340.75;;;10.31;75.04
40384;BME280;26097;42.366;23.818;2024-02-04T08:21:07;94350.97;;;10.34;73.34
40384;BME280;26097;42.366;23.818;2024-02-04T08:24:07;94339.72;;;10.47;73.90
40384;BME280;26097;42.366;23.818;2024-02-04T08:27:06;94353.81;;;10.68;71.14
40384;BME280;26097;42.366;23.818;2024-02-04T08:30:06;94347.09;;;10.77;71.28
40384;BME280;26097;42.366;23.818;2024-02-04T08:33:06;94354.53;;;10.95;71.31
40384;BME280;26097;42.366;23.818;2024-02-04T08:36:06;94353.25;;;11.00;70.29
40384;BME280;26097;42.366;23.818;2024-02-04T08:39:06;94352.59;;;11.21;70.87
40384;BME280;26097;42.366;23.818;2024-02-04T08:42:05;94350.63;;;11.48;69.33
40384;BME280;26097;42.366;23.818;2024-02-04T08:45:05;94347.66;;;11.52;69.25
40384;BME280;26097;42.366;23.818;2024-02-04T08:48:05;94356.13;;;11.56;65.49
40384;BME280;26097;42.366;23.818;2024-02-04T08:51:10;94364.31;;;11.63;64.81
40384;BME280;26097;42.366;23.818;2024-02-04T08:54:11;94352.81;;;11.77;65.54
40384;BME280;26097;42.366;23.818;2024-02-04T08:57:10;94369.69;;;11.37;65.28
40384;BME280;26097;42.366;23.818;2024-02-04T09:00:10;94358.66;;;10.97;66.24
40384;BME280;26097;42.366;23.818;2024-02-04T09:03:11;94353.97;;;11.03;65.75
40384;BME280;26097;42.366;23.818;2024-02-04T09:06:11;94346.34;;;10.99;66.40
40384;BME280;26097;42.366;23.818;2024-02-04T09:09:11;94339.47;;;10.98;65.62
40384;BME280;26097;42.366;23.818;2024-02-04T09:12:10;94347.44;;;11.08;66.07
40384;BME280;26097;42.366;23.818;2024-02-04T09:15:10;94342.66;;;11.26;64.87
40384;BME280;26097;42.366;23.818;2024-02-04T09:18:09;94340.66;;;11.41;64.67
40384;BME280;26097;42.366;23.818;2024-02-04T09:21:08;94353.59;;;11.07;64.87
40384;BME280;26097;42.366;23.818;2024-02-04T09:24:09;94360.13;;;11.02;65.24
40384;BME280;26097;42.366;23.818;2024-02-04T09:27:08;94361.81;;;10.90;65.92
40384;BME280;26097;42.366;23.818;2024-02-04T09:30:08;94363.38;;;10.68;66.73
40384;BME280;26097;42.366;23.818;2024-02-04T09:33:08;94378.84;;;10.58;67.22
40384;BME280;26097;42.366;23.818;2024-02-04T09:36:07;94368.31;;;10.60;66.96
40384;BME280;26097;42.366;23.818;2024-02-04T09:39:07;94377.81;;;10.61;66.68
40384;BME280;26097;42.366;23.818;2024-02-04T09:42:07;94373.00;;;10.67;66.33
40384;BME280;26097;42.366;23.818;2024-02-04T09:45:06;94373.97;;;10.78;66.18
40384;BME280;26097;42.366;23.818;2024-02-04T09:48:06;94385.56;;;10.74;66.82
40384;BME280;26097;42.366;23.818;2024-02-04T09:51:07;94392.59;;;10.73;67.02
40384;BME280;26097;42.366;23.818;2024-02-04T09:54:09;94386.66;;;10.71;66.79
40384;BME280;26097;42.366;23.818;2024-02-04T09:57:09;94391.13;;;10.69;67.49
40384;BME280;26097;42.366;23.818;2024-02-04T10:00:09;94407.44;;;10.84;66.92
40384;BME280;26097;42.366;23.818;2024-02-04T10:03:09;94379.19;;;11.02;66.68
40384;BME280;26097;42.366;23.818;2024-02-04T10:06:09;94411.69;;;11.34;65.89
40384;BME280;26097;42.366;23.818;2024-02-04T10:09:08;94383.22;;;11.31;66.65
40384;BME280;26097;42.366;23.818;2024-02-04T10:12:08;94398.22;;;11.16;67.61
40384;BME280;26097;42.366;23.818;2024-02-04T10:15:08;94387.19;;;11.12;67.96
40384;BME280;26097;42.366;23.818;2024-02-04T10:18:08;94385.75;;;11.08;68.81
40384;BME280;26097;42.366;23.818;2024-02-04T10:21:15;94382.28;;;11.07;68.44
40384;BME280;26097;42.366;23.818;2024-02-04T10:24:15;94366.59;;;11.32;68.02
40384;BME280;26097;42.366;23.818;2024-02-04T10:27:17;94366.88;;;11.40;67.80
40384;BME280;26097;42.366;23.818;2024-02-04T10:30:19;94365.50;;;11.70;67.13
40384;BME280;26097;42.366;23.818;2024-02-04T10:33:20;94364.47;;;11.95;66.29
40384;BME280;26097;42.366;23.818;2024-02-04T10:36:19;94375.03;;;11.82;65.36
40384;BME280;26097;42.366;23.818;2024-02-04T10:39:19;94390.88;;;11.56;66.73
40384;BME280;26097;42.366;23.818;2024-02-04T10:42:25;94383.59;;;11.49;67.73
40384;BME280;26097;42.366;23.818;2024-02-04T10:45:25;94384.25;;;11.64;67.27
40384;BME280;26097;42.366;23.818;2024-02-04T10:48:28;94388.50;;;11.53;67.74
40384;BME280;26097;42.366;23.818;2024-02-04T10:51:30;94362.00;;;11.35;67.85
40384;BME280;26097;42.366;23.818;2024-02-04T10:54:30;94365.00;;;11.53;67.45
40384;BME280;26097;42.366;23.818;2024-02-04T10:57:29;94360.53;;;11.20;67.55
40384;BME280;26097;42.366;23.818;2024-02-04T11:00:30;94357.75;;;11.10;67.85
40384;BME280;26097;42.366;23.818;2024-02-04T11:03:30;94363.53;;;11.26;66.94
40384;BME280;26097;42.366;23.818;2024-02-04T11:06:30;94374.38;;;11.09;66.75
40384;BME280;26097;42.366;23.818;2024-02-04T11:09:30;94372.41;;;10.99;67.93
40384;BME280;26097;42.366;23.818;2024-02-04T11:12:31;94351.56;;;10.99;68.29
40384;BME280;26097;42.366;23.818;2024-02-04T11:15:36;94358.72;;;11.09;68.16
40384;BME280;26097;42.366;23.818;2024-02-04T11:18:46;94352.59;;;11.21;67.57
40384;BME280;26097;42.366;23.818;2024-02-04T11:25:23;94343.59;;;11.37;67.01
40384;BME280;26097;42.366;23.818;2024-02-04T11:28:26;94333.22;;;11.71;66.44
40384;BME280;26097;42.366;23.818;2024-02-04T11:31:28;94328.59;;;11.86;66.00
40384;BME280;26097;42.366;23.818;2024-02-04T11:34:28;94317.44;;;12.18;64.45
40384;BME280;26097;42.366;23.818;2024-02-04T11:37:28;94314.50;;;12.23;63.35
40384;BME280;26097;42.366;23.818;2024-02-04T11:40:34;94301.91;;;12.05;63.70
40384;BME280;26097;42.366;23.818;2024-02-04T11:43:34;94304.03;;;11.89;64.64
40384;BME280;26097;42.366;23.818;2024-02-04T11:46:35;94307.94;;;12.06;63.81
40384;BME280;26097;42.366;23.818;2024-02-04T11:49:34;94310.94;;;12.01;63.51
40384;BME280;26097;42.366;23.818;2024-02-04T11:52:33;94292.03;;;11.75;64.14
40384;BME280;26097;42.366;23.818;2024-02-04T11:55:34;94292.16;;;11.73;64.94
40384;BME280;26097;42.366;23.818;2024-02-04T11:58:34;94282.41;;;11.75;65.17
40384;BME280;26097;42.366;23.818;2024-02-04T12:01:34;94280.06;;;11.61;65.30
40384;BME280;26097;42.366;23.818;2024-02-04T12:04:35;94292.38;;;12.16;64.12
40384;BME280;26097;42.366;23.818;2024-02-04T12:07:36;94291.28;;;12.74;62.06
40384;BME280;26097;42.366;23.818;2024-02-04T12:10:37;94279.97;;;13.06;60.21
40384;BME280;26097;42.366;23.818;2024-02-04T12:13:37;94269.88;;;13.22;60.06
40384;BME280;26097;42.366;23.818;2024-02-04T12:16:38;94295.75;;;13.37;58.17
40384;BME280;26097;42.366;23.818;2024-02-04T12:19:37;94281.38;;;13.10;58.48
40384;BME280;26097;42.366;23.818;2024-02-04T12:22:40;94280.56;;;12.77;58.61
40384;BME280;26097;42.366;23.818;2024-02-04T12:25:39;94278.81;;;12.33;59.34
40384;BME280;26097;42.366;23.818;2024-02-04T12:28:39;94274.78;;;12.18;60.25
40384;BME280;26097;42.366;23.818;2024-02-04T12:31:38;94275.03;;;12.14;61.58
40384;BME280;26097;42.366;23.818;2024-02-04T12:34:38;94279.38;;;12.48;61.30
40384;BME280;26097;42.366;23.818;2024-02-04T12:37:37;94284.00;;;13.10;59.32
40384;BME280;26097;42.366;23.818;2024-02-04T12:40:37;94289.97;;;13.22;59.46
40384;BME280;26097;42.366;23.818;2024-02-04T12:43:36;94262.69;;;13.67;57.43
40384;BME280;26097;42.366;23.818;2024-02-04T12:46:35;94261.00;;;13.56;57.30
40384;BME280;26097;42.366;23.818;2024-02-04T12:49:35;94261.78;;;13.25;58.32
40384;BME280;26097;42.366;23.818;2024-02-04T12:52:34;94263.13;;;12.98;58.93
40384;BME280;26097;42.366;23.818;2024-02-04T12:55:37;94254.81;;;12.93;59.60
40384;BME280;26097;42.366;23.818;2024-02-04T12:58:42;94275.41;;;12.65;59.75
40384;BME280;26097;42.366;23.818;2024-02-04T13:01:42;94272.16;;;12.40;60.24
40384;BME280;26097;42.366;23.818;2024-02-04T13:04:42;94252.84;;;12.53;60.46
40384;BME280;26097;42.366;23.818;2024-02-04T13:07:42;94261.56;;;12.42;60.47
40384;BME280;26097;42.366;23.818;2024-02-04T13:10:41;94259.47;;;12.57;60.59
40384;BME280;26097;42.366;23.818;2024-02-04T13:13:42;94272.69;;;12.55;59.38
40384;BME280;26097;42.366;23.818;2024-02-04T13:16:42;94271.66;;;12.35;60.14
40384;BME280;26097;42.366;23.818;2024-02-04T13:19:41;94274.09;;;12.27;59.49
40384;BME280;26097;42.366;23.818;2024-02-04T13:22:42;94278.03;;;12.10;59.09
40384;BME280;26097;42.366;23.818;2024-02-04T13:25:41;94268.16;;;11.91;59.73
40384;BME280;26097;42.366;23.818;2024-02-04T13:28:41;94289.78;;;11.93;59.78
40384;BME280;26097;42.366;23.818;2024-02-04T13:31:41;94282.41;;;11.98;60.05
40384;BME280;26097;42.366;23.818;2024-02-04T13:34:40;94289.56;;;11.84;60.17
40384;BME280;26097;42.366;23.818;2024-02-04T13:37:41;94292.88;;;12.09;59.55
40384;BME280;26097;42.366;23.818;2024-02-04T13:40:40;94293.34;;;11.92;59.89
40384;BME280;26097;42.366;23.818;2024-02-04T13:43:40;94311.38;;;11.72;59.86
40384;BME280;26097;42.366;23.818;2024-02-04T13:46:40;94304.75;;;11.79;59.93
40384;BME280;26097;42.366;23.818;2024-02-04T13:49:41;94308.88;;;11.82;60.13
40384;BME280;26097;42.366;23.818;2024-02-04T13:52:41;94318.97;;;11.75;60.47
40384;BME280;26097;42.366;23.818;2024-02-04T13:55:40;94309.97;;;11.68;60.66
40384;BME280;26097;42.366;23.818;2024-02-04T13:58:39;94304.50;;;11.60;61.48
40384;BME280;26097;42.366;23.818;2024-02-04T14:01:39;94328.69;;;11.50;60.88
40384;BME280;26097;42.366;23.818;2024-02-04T14:04:38;94333.56;;;11.55;61.40
40384;BME280;26097;42.366;23.818;2024-02-04T14:07:37;94332.38;;;11.59;61.51
40384;BME280;26097;42.366;23.818;2024-02-04T14:10:39;94332.81;;;11.41;61.88
40384;BME280;26097;42.366;23.818;2024-02-04T14:13:39;94341.34;;;11.32;62.34
40384;BME280;26097;42.366;23.818;2024-02-04T14:16:38;94351.19;;;11.28;62.62
40384;BME280;26097;42.366;23.818;2024-02-04T14:19:38;94348.09;;;11.23;62.73
40384;BME280;26097;42.366;23.818;2024-02-04T14:22:37;94342.50;;;11.17;62.78
40384;BME280;26097;42.366;23.818;2024-02-04T14:25:37;94331.22;;;11.16;62.54
40384;BME280;26097;42.366;23.818;2024-02-04T14:28:36;94329.31;;;11.18;62.38
40384;BME280;26097;42.366;23.818;2024-02-04T14:31:40;94335.38;;;11.19;62.65
40384;BME280;26097;42.366;23.818;2024-02-04T14:34:39;94328.81;;;11.02;63.08
40384;BME280;26097;42.366;23.818;2024-02-04T14:37:39;94333.09;;;11.14;62.67
40384;BME280;26097;42.366;23.818;2024-02-04T14:40:38;94332.84;;;11.06;62.45
40384;BME280;26097;42.366;23.818;2024-02-04T14:43:37;94329.78;;;11.12;62.47
40384;BME280;26097;42.366;23.818;2024-02-04T14:46:38;94315.97;;;10.98;62.71
40384;BME280;26097;42.366;23.818;2024-02-04T14:49:37;94308.63;;;10.92;62.70
40384;BME280;26097;42.366;23.818;2024-02-04T14:52:37;94302.00;;;10.99;62.55
40384;BME280;26097;42.366;23.818;2024-02-04T14:55:36;94324.97;;;10.83;64.40
40384;BME280;26097;42.366;23.818;2024-02-04T14:58:39;94308.78;;;10.78;64.89
40384;BME280;26097;42.366;23.818;2024-02-04T15:01:38;94297.22;;;10.57;66.42
40384;BME280;26097;42.366;23.818;2024-02-04T15:04:38;94299.19;;;10.42;67.61
40384;BME280;26097;42.366;23.818;2024-02-04T15:07:37;94307.38;;;10.36;67.40
40384;BME280;26097;42.366;23.818;2024-02-04T15:10:37;94303.56;;;10.29;68.03
40384;BME280;26097;42.366;23.818;2024-02-04T15:13:37;94304.91;;;10.22;69.36
40384;BME280;26097;42.366;23.818;2024-02-04T15:16:37;94300.38;;;10.12;69.68
40384;BME280;26097;42.366;23.818;2024-02-04T15:19:38;94309.03;;;10.00;70.66
40384;BME280;26097;42.366;23.818;2024-02-04T15:22:39;94303.06;;;9.86;71.21
40384;BME280;26097;42.366;23.818;2024-02-04T15:25:40;94292.75;;;9.72;72.10
40384;BME280;26097;42.366;23.818;2024-02-04T15:28:40;94289.03;;;9.50;72.61
40384;BME280;26097;42.366;23.818;2024-02-04T15:31:40;94304.84;;;9.21;73.66
40384;BME280;26097;42.366;23.818;2024-02-04T15:34:41;94294.03;;;9.27;75.64
40384;BME280;26097;42.366;23.818;2024-02-04T15:37:40;94291.97;;;9.20;75.36
40384;BME280;26097;42.366;23.818;2024-02-04T15:40:40;94307.34;;;9.10;76.76
40384;BME280;26097;42.366;23.818;2024-02-04T15:43:39;94308.16;;;8.97;76.93
40384;BME280;26097;42.366;23.818;2024-02-04T15:46:41;94324.38;;;8.88;78.35
40384;BME280;26097;42.366;23.818;2024-02-04T15:49:41;94314.91;;;8.87;79.32
40384;BME280;26097;42.366;23.818;2024-02-04T15:52:41;94313.75;;;8.91;78.36